createdAt,value
2022-10-20T00:01:52.519Z,75.67
2022-10-20T00:04:19.383Z,75.94
2022-10-20T00:06:46.264Z,75.63
2022-10-20T00:09:13.195Z,75.57
2022-10-20T00:11:39.991Z,75.05
2022-10-20T00:14:06.733Z,75.37
2022-10-20T00:16:37.124Z,74.18
2022-10-20T00:19:04.392Z,75.23
2022-10-20T00:21:32.721Z,75.17
2022-10-20T00:24:01.613Z,75.44
2022-10-20T00:26:29.907Z,75.67
2022-10-20T00:28:57.379Z,75.44
2022-10-20T00:31:25.203Z,75.01
2022-10-20T00:33:52.368Z,75.46
2022-10-20T00:36:21.380Z,75.04
2022-10-20T00:38:48.726Z,75.02
2022-10-20T00:41:21.165Z,75.10
2022-10-20T00:44:15.735Z,75.61
2022-10-20T00:46:43.442Z,75.60
2022-10-20T00:49:20.799Z,75.09
2022-10-20T00:51:48.040Z,75.84
2022-10-20T00:54:18.293Z,75.88
2022-10-20T00:56:47.432Z,75.75
2022-10-20T00:59:18.654Z,75.42
2022-10-20T01:01:46.105Z,75.79
2022-10-20T01:04:13.183Z,75.77
2022-10-20T01:06:40.150Z,76.29
2022-10-20T01:09:07.905Z,75.52
2022-10-20T01:12:13.219Z,74.92
2022-10-20T01:15:09.364Z,75.00
2022-10-20T01:17:57.448Z,75.71
2022-10-20T01:20:42.425Z,75.41
2022-10-20T01:23:18.001Z,74.89
2022-10-20T01:25:53.794Z,75.26
2022-10-20T01:28:39.001Z,75.02
2022-10-20T01:31:19.539Z,74.89
2022-10-20T01:34:07.390Z,74.60
2022-10-20T01:37:05.412Z,74.52
2022-10-20T01:39:36.535Z,74.91
2022-10-20T01:42:16.338Z,74.06
2022-10-20T01:44:44.687Z,74.28
2022-10-20T01:47:12.240Z,73.81
2022-10-20T01:49:43.483Z,73.76
2022-10-20T01:52:13.761Z,73.23
2022-10-20T01:54:40.664Z,73.29
2022-10-20T01:57:26.032Z,72.26
2022-10-20T02:00:08.901Z,72.74
2022-10-20T02:03:12.893Z,71.93
2022-10-20T02:06:03.210Z,72.68
2022-10-20T02:08:38.624Z,72.86
2022-10-20T02:11:07.921Z,73.02
2022-10-20T02:13:37.308Z,73.25
2022-10-20T02:16:11.825Z,73.16
2022-10-20T02:18:42.814Z,73.36
2022-10-20T02:21:11.913Z,72.98
2022-10-20T02:23:44.405Z,72.92
2022-10-20T02:26:15.069Z,72.36
2022-10-20T02:28:47.150Z,72.20
2022-10-20T02:31:14.389Z,72.58
2022-10-20T02:33:44.523Z,72.51
2022-10-20T02:36:16.957Z,72.23
2022-10-20T02:38:43.887Z,72.51
2022-10-20T02:41:11.104Z,72.74
2022-10-20T02:43:38.152Z,71.75
2022-10-20T02:46:05.089Z,71.56
2022-10-20T02:48:31.823Z,71.77
2022-10-20T02:50:58.649Z,71.77
2022-10-20T02:53:25.462Z,71.41
2022-10-20T02:55:52.266Z,71.86
2022-10-20T02:58:19.094Z,71.37
2022-10-20T03:00:45.817Z,72.05
2022-10-20T03:03:12.571Z,71.96
2022-10-20T03:05:42.089Z,71.11
2022-10-20T03:08:08.883Z,71.67
2022-10-20T03:10:37.310Z,71.08
2022-10-20T03:13:05.433Z,71.07
2022-10-20T03:15:32.561Z,71.61
2022-10-20T03:17:59.410Z,71.37
2022-10-20T03:20:26.295Z,71.61
2022-10-20T03:22:53.030Z,71.74
2022-10-20T03:25:19.753Z,71.89
2022-10-20T03:27:46.536Z,72.01
2022-10-20T03:30:13.384Z,72.36
2022-10-20T03:32:40.155Z,72.01
2022-10-20T03:35:07.576Z,72.48
2022-10-20T03:37:34.379Z,72.09
2022-10-20T03:40:01.104Z,72.01
2022-10-20T03:42:27.900Z,72.32
2022-10-20T03:44:54.605Z,72.72
2022-10-20T03:47:21.328Z,72.73
2022-10-20T03:49:48.408Z,72.86
2022-10-20T03:52:15.264Z,72.67
2022-10-20T03:54:44.150Z,72.87
2022-10-20T03:57:10.996Z,72.75
2022-10-20T03:59:37.689Z,72.28
2022-10-20T04:02:04.781Z,72.66
2022-10-20T04:04:31.647Z,72.63
2022-10-20T04:06:58.383Z,73.10
2022-10-20T04:09:25.107Z,72.69
2022-10-20T04:11:51.912Z,72.62
2022-10-20T04:14:18.643Z,73.47
2022-10-20T04:16:45.304Z,72.75
2022-10-20T04:19:12.034Z,72.70
2022-10-20T04:21:38.735Z,72.79
2022-10-20T04:24:07.340Z,72.90
2022-10-20T04:26:34.258Z,73.24
2022-10-20T04:29:01.269Z,72.99
2022-10-20T04:31:27.947Z,72.63
2022-10-20T04:33:54.695Z,73.21
2022-10-20T04:36:21.397Z,73.30
2022-10-20T04:38:48.092Z,73.46
2022-10-20T04:41:14.874Z,73.31
2022-10-20T04:43:41.575Z,74.17
2022-10-20T04:46:08.707Z,73.82
2022-10-20T04:48:36.619Z,73.91
2022-10-20T04:51:08.915Z,73.20
2022-10-20T04:53:36.226Z,73.90
2022-10-20T04:56:04.421Z,72.91
2022-10-20T04:58:31.371Z,73.30
2022-10-20T05:01:07.743Z,73.00
2022-10-20T05:03:35.366Z,73.46
2022-10-20T05:06:20.101Z,73.09
2022-10-20T05:08:49.250Z,73.35
2022-10-20T05:11:17.200Z,73.36
2022-10-20T05:13:44.320Z,73.03
2022-10-20T05:16:11.986Z,73.19
2022-10-20T05:18:40.040Z,73.31
2022-10-20T05:21:12.171Z,73.16
2022-10-20T05:23:40.164Z,73.07
2022-10-20T05:26:10.746Z,73.39
2022-10-20T05:28:37.688Z,73.25
2022-10-20T05:31:06.976Z,73.03
2022-10-20T05:33:34.686Z,72.81
2022-10-20T05:36:07.673Z,72.84
2022-10-20T05:38:36.870Z,73.23
2022-10-20T05:41:18.061Z,72.82
2022-10-20T05:43:50.106Z,72.41
2022-10-20T05:46:18.084Z,72.98
2022-10-20T05:48:45.604Z,73.30
2022-10-20T05:51:16.589Z,73.56
2022-10-20T05:53:44.540Z,73.60
2022-10-20T05:56:15.093Z,73.52
2022-10-20T05:58:43.076Z,73.79
2022-10-20T06:01:24.114Z,73.59
2022-10-20T06:03:58.547Z,73.23
2022-10-20T06:06:30.856Z,72.83
2022-10-20T06:08:59.913Z,73.34
2022-10-20T06:11:27.164Z,73.22
2022-10-20T06:13:54.002Z,72.68
2022-10-20T06:16:23.560Z,72.17
2022-10-20T06:18:51.402Z,72.49
2022-10-20T06:21:28.720Z,73.04
2022-10-20T06:23:55.773Z,73.36
2022-10-20T06:26:30.110Z,73.04
2022-10-20T06:29:03.643Z,72.54
2022-10-20T06:31:34.631Z,72.92
2022-10-20T06:34:04.110Z,71.85
2022-10-20T06:36:30.814Z,72.16
2022-10-20T06:38:59.087Z,72.60
2022-10-20T06:41:27.246Z,72.83
2022-10-20T06:43:58.700Z,73.63
2022-10-20T06:46:27.112Z,73.97
2022-10-20T06:48:57.885Z,74.98
2022-10-20T06:51:26.158Z,75.44
2022-10-20T06:53:53.213Z,75.21
2022-10-20T06:56:29.034Z,75.62
2022-10-20T06:58:57.494Z,75.53
2022-10-20T07:01:27.209Z,75.61
2022-10-20T07:03:59.662Z,76.07
2022-10-20T07:06:28.615Z,76.32
2022-10-20T07:09:00.079Z,76.32
2022-10-20T07:11:29.181Z,76.24
2022-10-20T07:13:57.630Z,75.74
2022-10-20T07:16:26.236Z,75.74
2022-10-20T07:18:53.931Z,75.61
2022-10-20T07:21:22.976Z,75.17
2022-10-20T07:23:50.724Z,75.15
2022-10-20T07:26:20.464Z,75.46
2022-10-20T07:28:53.299Z,75.45
2022-10-20T07:31:30.788Z,75.02
2022-10-20T07:34:12.892Z,74.70
2022-10-20T07:36:47.053Z,74.97
2022-10-20T07:39:13.990Z,74.15
2022-10-20T07:41:44.109Z,74.49
2022-10-20T07:44:11.008Z,74.84
2022-10-20T07:46:37.749Z,75.05
2022-10-20T07:49:42.325Z,74.80
2022-10-20T07:51:51.406Z,74.41
2022-10-20T07:54:18.524Z,74.30
2022-10-20T07:56:46.339Z,74.33
2022-10-20T07:59:14.586Z,73.78
2022-10-20T08:01:42.046Z,73.86
2022-10-20T08:04:08.891Z,73.95
2022-10-20T08:06:35.744Z,73.55
2022-10-20T08:09:02.617Z,72.83
2022-10-20T08:11:29.815Z,73.12
2022-10-20T08:13:56.731Z,73.10
2022-10-20T08:16:28.640Z,73.34
2022-10-20T08:18:58.131Z,73.24
2022-10-20T08:21:25.489Z,73.17
2022-10-20T08:23:52.206Z,73.46
2022-10-20T08:26:24.400Z,73.70
2022-10-20T08:28:53.461Z,73.20
2022-10-20T08:31:21.123Z,73.54
2022-10-20T08:33:52.357Z,74.04
2022-10-20T08:36:20.992Z,73.78
2022-10-20T08:38:48.532Z,74.08
2022-10-20T08:41:38.738Z,74.91
2022-10-20T08:44:25.246Z,76.22
2022-10-20T08:46:52.641Z,77.29
2022-10-20T08:49:32.680Z,77.35
2022-10-20T08:51:59.478Z,77.45
2022-10-20T08:54:26.317Z,77.43
2022-10-20T08:56:53.137Z,76.25
2022-10-20T08:59:19.901Z,76.33
2022-10-20T09:01:46.806Z,75.11
2022-10-20T09:04:21.555Z,74.60
2022-10-20T09:06:54.242Z,74.46
2022-10-20T09:09:23.717Z,73.06
2022-10-20T09:11:51.394Z,72.64
2022-10-20T09:14:18.216Z,73.54
2022-10-20T09:16:59.832Z,73.27
2022-10-20T09:19:28.764Z,72.87
2022-10-20T09:21:58.321Z,72.31
2022-10-20T09:24:30.277Z,73.06
2022-10-20T09:27:16.152Z,72.58
2022-10-20T09:29:42.877Z,72.11
2022-10-20T09:32:51.639Z,71.08
2022-10-20T09:35:25.506Z,71.16
2022-10-20T09:38:01.732Z,72.12
2022-10-20T09:40:28.532Z,72.80
2022-10-20T09:43:17.292Z,71.96
2022-10-20T09:45:54.409Z,71.62
2022-10-20T09:48:25.948Z,71.09
2022-10-20T09:50:56.248Z,70.96
2022-10-20T09:53:30.709Z,69.45
2022-10-20T09:55:57.606Z,71.61
2022-10-20T09:58:33.969Z,73.26
2022-10-20T10:01:05.093Z,74.50
2022-10-20T10:03:46.781Z,75.10
2022-10-20T10:06:40.474Z,75.90
2022-10-20T10:09:32.750Z,76.39
2022-10-20T10:12:16.851Z,77.55
2022-10-20T10:15:06.013Z,79.50
2022-10-20T10:17:41.220Z,80.10
2022-10-20T10:20:33.273Z,80.44
2022-10-20T10:23:23.184Z,80.39
2022-10-20T10:25:51.351Z,79.51
2022-10-20T10:28:38.955Z,78.04
2022-10-20T10:31:24.446Z,77.16
2022-10-20T10:34:01.473Z,77.56
2022-10-20T10:36:32.214Z,77.87
2022-10-20T10:38:59.411Z,77.26
2022-10-20T10:41:44.887Z,77.78
2022-10-20T10:44:24.795Z,76.67
2022-10-20T10:47:26.896Z,78.37
2022-10-20T10:50:11.749Z,73.72
2022-10-20T10:53:03.255Z,67.68
2022-10-20T10:55:48.291Z,69.92
2022-10-20T10:58:31.393Z,68.89
2022-10-20T11:01:16.546Z,65.49
2022-10-20T11:03:58.739Z,67.73
2022-10-20T11:06:25.406Z,70.02
2022-10-20T11:09:05.840Z,69.67
2022-10-20T11:11:37.853Z,71.69
2022-10-20T11:14:58.385Z,72.48
2022-10-20T11:17:53.069Z,72.90
2022-10-20T11:20:20.005Z,74.20
2022-10-20T11:23:09.641Z,73.38
2022-10-20T11:25:59.148Z,73.12
2022-10-20T11:28:30.432Z,74.21
2022-10-20T11:30:59.336Z,74.02
2022-10-20T11:33:49.205Z,73.82
2022-10-20T11:36:18.504Z,74.04
2022-10-20T11:38:54.705Z,74.63
2022-10-20T11:41:38.653Z,72.89
2022-10-20T11:44:13.488Z,73.80
2022-10-20T11:46:48.565Z,75.07
2022-10-20T11:49:15.296Z,74.92
2022-10-20T11:52:00.953Z,73.70
2022-10-20T11:54:39.867Z,73.27
2022-10-20T11:57:15.878Z,75.14
2022-10-20T12:00:00.651Z,76.35
2022-10-20T12:03:00.951Z,76.92
2022-10-20T12:05:27.595Z,77.96
2022-10-20T12:08:28.317Z,77.94
2022-10-20T12:11:07.048Z,78.52
2022-10-20T12:13:45.906Z,78.81
2022-10-20T12:16:12.770Z,79.37
2022-10-20T12:18:39.653Z,79.95
2022-10-20T12:21:11.137Z,80.01
2022-10-20T12:23:43.906Z,81.02
2022-10-20T12:26:35.262Z,81.81
2022-10-20T12:29:42.095Z,82.31
2022-10-20T12:32:27.639Z,83.15
2022-10-20T12:34:57.272Z,83.61
2022-10-20T12:37:23.979Z,83.97
2022-10-20T12:39:53.221Z,84.35
2022-10-20T12:42:21.444Z,84.96
2022-10-20T12:44:48.531Z,85.53
2022-10-20T12:47:23.706Z,86.09
2022-10-20T12:50:39.558Z,86.26
2022-10-20T12:53:28.350Z,86.78
2022-10-20T12:56:21.736Z,86.27
2022-10-20T12:59:27.439Z,86.23
2022-10-20T13:02:09.227Z,85.29
2022-10-20T13:05:06.674Z,84.91
2022-10-20T13:07:48.385Z,85.29
2022-10-20T13:10:30.259Z,84.85
2022-10-20T13:13:02.858Z,85.55
2022-10-20T13:15:31.455Z,85.37
2022-10-20T13:18:03.214Z,85.78
2022-10-20T13:20:37.797Z,85.80
2022-10-20T13:23:05.104Z,86.18
2022-10-20T13:25:53.470Z,86.64
2022-10-20T13:28:29.323Z,86.81
2022-10-20T13:30:56.034Z,87.54
2022-10-20T13:34:03.157Z,87.75
2022-10-20T13:36:36.177Z,87.26
2022-10-20T13:39:27.640Z,87.03
2022-10-20T13:41:57.103Z,87.25
2022-10-20T13:44:32.092Z,87.55
2022-10-20T13:46:58.934Z,87.71
2022-10-20T13:49:51.883Z,87.14
2022-10-20T13:52:21.688Z,87.13
2022-10-20T13:54:51.308Z,86.95
2022-10-20T13:57:28.321Z,86.45
2022-10-20T14:00:00.695Z,86.75
2022-10-20T14:02:27.324Z,86.26
2022-10-20T14:05:13.526Z,85.29
2022-10-20T14:07:44.663Z,85.77
2022-10-20T14:10:24.172Z,85.50
2022-10-20T14:12:51.802Z,85.77
2022-10-20T14:15:30.978Z,85.72
2022-10-20T14:18:01.117Z,85.55
2022-10-20T14:20:29.385Z,85.92
2022-10-20T14:22:59.057Z,85.46
2022-10-20T14:25:27.704Z,85.53
2022-10-20T14:27:56.677Z,85.23
2022-10-20T14:30:24.331Z,84.97
2022-10-20T14:32:51.741Z,85.25
2022-10-20T14:35:26.254Z,85.22
2022-10-20T14:37:58.657Z,85.16
2022-10-20T14:40:52.873Z,84.02
2022-10-20T14:43:41.169Z,83.43
2022-10-20T14:46:11.402Z,83.85
2022-10-20T14:48:44.435Z,84.14
2022-10-20T14:51:33.032Z,82.98
2022-10-20T14:54:21.148Z,82.14
2022-10-20T14:56:51.231Z,82.58
2022-10-20T14:59:27.341Z,81.49
2022-10-20T15:02:13.752Z,81.95
2022-10-20T15:04:42.374Z,81.59
2022-10-20T15:07:35.419Z,82.13
2022-10-20T15:10:14.522Z,82.21
2022-10-20T15:12:44.632Z,82.34
2022-10-20T15:15:11.267Z,81.96
2022-10-20T15:17:46.198Z,81.61
2022-10-20T15:20:33.323Z,81.18
2022-10-20T15:23:09.108Z,81.77
2022-10-20T15:25:54.664Z,81.88
2022-10-20T15:28:25.511Z,82.18
2022-10-20T15:30:52.507Z,82.25
2022-10-20T15:33:19.567Z,82.02
2022-10-20T15:35:47.871Z,82.11
2022-10-20T15:38:15.249Z,81.75
2022-10-20T15:40:42.651Z,81.47
2022-10-20T15:43:14.674Z,81.65
2022-10-20T15:45:45.216Z,82.09
2022-10-20T15:48:11.986Z,82.20
2022-10-20T15:50:39.658Z,82.46
2022-10-20T15:53:06.832Z,82.60
2022-10-20T15:55:37.511Z,81.64
2022-10-20T15:58:04.419Z,82.45
2022-10-20T16:00:31.178Z,82.51
2022-10-20T16:02:57.921Z,82.69
2022-10-20T16:05:25.798Z,83.03
2022-10-20T16:07:54.324Z,82.97
2022-10-20T16:10:29.616Z,82.83
2022-10-20T16:12:57.224Z,83.11
2022-10-20T16:15:28.863Z,82.73
2022-10-20T16:17:58.269Z,82.92
2022-10-20T16:20:25.495Z,82.75
2022-10-20T16:22:52.519Z,82.72
2022-10-20T16:25:19.335Z,83.37
2022-10-20T16:27:46.203Z,83.11
2022-10-20T16:30:13.017Z,82.91
2022-10-20T16:32:40.235Z,83.17
2022-10-20T16:35:07.416Z,82.96
2022-10-20T16:37:34.603Z,82.78
2022-10-20T16:40:01.549Z,82.55
2022-10-20T16:42:32.695Z,82.81
2022-10-20T16:44:59.407Z,83.40
2022-10-20T16:47:26.505Z,83.22
2022-10-20T16:49:53.298Z,83.29
2022-10-20T16:52:20.361Z,83.26
2022-10-20T16:54:47.160Z,83.27
2022-10-20T16:57:14.036Z,83.18
2022-10-20T16:59:42.558Z,83.19
2022-10-20T17:02:12.553Z,82.81
2022-10-20T17:04:40.346Z,83.39
2022-10-20T17:07:08.795Z,83.50
2022-10-20T17:09:35.646Z,83.14
2022-10-20T17:12:02.390Z,83.14
2022-10-20T17:14:29.105Z,83.15
2022-10-20T17:16:55.993Z,82.65
2022-10-20T17:19:22.859Z,82.67
2022-10-20T17:21:52.487Z,82.61
2022-10-20T17:24:22.052Z,82.75
2022-10-20T17:26:48.810Z,82.78
2022-10-20T17:29:15.522Z,83.15
2022-10-20T17:31:43.387Z,83.01
2022-10-20T17:34:10.192Z,83.17
2022-10-20T17:36:36.956Z,83.45
2022-10-20T17:39:07.210Z,83.45
2022-10-20T17:41:34.145Z,83.91
2022-10-20T17:44:02.775Z,83.77
2022-10-20T17:46:29.606Z,83.78
2022-10-20T17:48:56.498Z,83.99
2022-10-20T17:51:27.760Z,84.23
2022-10-20T17:53:58.229Z,84.29
2022-10-20T17:56:35.973Z,84.17
2022-10-20T17:59:05.257Z,84.51
2022-10-20T18:01:35.052Z,84.49
2022-10-20T18:04:05.630Z,84.93
2022-10-20T18:06:34.731Z,85.34
2022-10-20T18:09:06.759Z,85.68
2022-10-20T18:11:35.558Z,85.75
2022-10-20T18:14:03.116Z,85.72
2022-10-20T18:16:32.441Z,85.74
2022-10-20T18:19:00.027Z,85.50
2022-10-20T18:21:28.933Z,85.57
2022-10-20T18:24:02.441Z,85.48
2022-10-20T18:26:31.092Z,85.51
2022-10-20T18:28:59.738Z,85.67
2022-10-20T18:31:30.752Z,86.12
2022-10-20T18:34:04.155Z,85.80
2022-10-20T18:36:31.379Z,86.01
2022-10-20T18:38:59.513Z,85.97
2022-10-20T18:41:29.646Z,85.79
2022-10-20T18:43:59.142Z,86.13
2022-10-20T18:46:27.334Z,85.89
2022-10-20T18:48:54.908Z,86.02
2022-10-20T18:51:22.222Z,85.91
2022-10-20T18:53:53.097Z,85.96
2022-10-20T18:56:22.158Z,85.75
2022-10-20T18:58:59.630Z,86.00
2022-10-20T19:01:31.983Z,85.72
2022-10-20T19:03:59.782Z,85.92
2022-10-20T19:06:35.164Z,86.07
2022-10-20T19:09:04.910Z,86.11
2022-10-20T19:11:34.421Z,86.28
2022-10-20T19:14:01.852Z,86.63
2022-10-20T19:16:31.208Z,86.55
2022-10-20T19:19:00.972Z,86.37
2022-10-20T19:21:28.722Z,86.27
2022-10-20T19:24:04.494Z,86.13
2022-10-20T19:26:57.414Z,85.88
2022-10-20T19:29:29.805Z,86.03
2022-10-20T19:32:01.914Z,85.87
2022-10-20T19:34:30.758Z,85.93
2022-10-20T19:36:58.282Z,85.56
2022-10-20T19:39:28.842Z,85.24
2022-10-20T19:41:57.784Z,85.62
2022-10-20T19:44:24.915Z,85.21
2022-10-20T19:46:52.754Z,84.96
2022-10-20T19:49:21.234Z,84.42
2022-10-20T19:51:48.271Z,84.87
2022-10-20T19:54:15.181Z,84.18
2022-10-20T19:56:42.796Z,84.28
2022-10-20T19:59:10.468Z,84.07
2022-10-20T20:01:37.853Z,83.94
2022-10-20T20:04:06.471Z,84.23
2022-10-20T20:06:34.181Z,84.12
2022-10-20T20:09:04.629Z,83.77
2022-10-20T20:11:31.869Z,83.70
2022-10-20T20:14:01.268Z,83.59
2022-10-20T20:16:28.435Z,84.02
2022-10-20T20:18:55.659Z,83.82
2022-10-20T20:21:23.387Z,83.78
2022-10-20T20:24:00.221Z,83.71
2022-10-20T20:26:33.161Z,83.50
2022-10-20T20:29:00.106Z,83.27
2022-10-20T20:31:28.265Z,83.49
2022-10-20T20:33:57.036Z,83.54
2022-10-20T20:36:27.150Z,83.29
2022-10-20T20:38:58.545Z,83.17
2022-10-20T20:41:31.344Z,83.57
2022-10-20T20:43:58.152Z,83.80
2022-10-20T20:46:28.999Z,83.69
2022-10-20T20:48:58.748Z,83.32
2022-10-20T20:51:27.102Z,83.62
2022-10-20T20:53:53.840Z,83.84
2022-10-20T20:56:23.136Z,83.73
2022-10-20T20:58:55.189Z,83.59
2022-10-20T21:01:25.347Z,83.78
2022-10-20T21:03:56.589Z,83.81
2022-10-20T21:06:33.280Z,84.13
2022-10-20T21:09:01.659Z,84.07
2022-10-20T21:11:32.902Z,83.87
2022-10-20T21:13:59.667Z,83.82
2022-10-20T21:16:37.043Z,84.15
2022-10-20T21:19:10.492Z,84.24
2022-10-20T21:21:39.793Z,83.93
2022-10-20T21:24:06.983Z,83.92
2022-10-20T21:26:33.907Z,83.71
2022-10-20T21:29:00.748Z,84.37
2022-10-20T21:31:28.804Z,84.15
2022-10-20T21:34:01.542Z,84.46
2022-10-20T21:36:31.505Z,84.88
2022-10-20T21:38:58.497Z,86.06
2022-10-20T21:41:27.977Z,86.15
2022-10-20T21:43:56.945Z,86.25
2022-10-20T21:46:28.225Z,86.78
2022-10-20T21:49:03.824Z,86.77
2022-10-20T21:51:35.989Z,86.85
2022-10-20T21:54:06.206Z,87.05
2022-10-20T21:56:37.442Z,86.91
2022-10-20T21:59:06.381Z,86.92
2022-10-20T22:01:33.664Z,87.46
2022-10-20T22:04:01.141Z,87.26
2022-10-20T22:06:28.214Z,87.24
2022-10-20T22:08:57.803Z,87.40
2022-10-20T22:11:28.157Z,87.05
2022-10-20T22:13:55.277Z,87.31
2022-10-20T22:16:25.037Z,87.31
2022-10-20T22:19:00.017Z,87.04
2022-10-20T22:21:27.944Z,87.40
2022-10-20T22:23:56.688Z,87.37
2022-10-20T22:26:28.325Z,86.98
2022-10-20T22:28:55.197Z,87.23
2022-10-20T22:31:23.244Z,86.85
2022-10-20T22:33:55.526Z,86.89
2022-10-20T22:36:23.146Z,87.36
2022-10-20T22:38:50.145Z,87.10
2022-10-20T22:41:17.564Z,86.94
2022-10-20T22:43:44.572Z,87.13
2022-10-20T22:46:11.315Z,87.11
2022-10-20T22:48:38.347Z,87.26
2022-10-20T22:51:06.964Z,87.22
2022-10-20T22:53:33.671Z,86.74
2022-10-20T22:56:10.624Z,86.56
2022-10-20T22:58:37.624Z,86.93
2022-10-20T23:01:12.841Z,86.84
2022-10-20T23:03:40.232Z,87.22
2022-10-20T23:06:19.634Z,86.71
2022-10-20T23:08:49.166Z,87.30
2022-10-20T23:11:17.194Z,87.12
2022-10-20T23:13:44.687Z,86.91
2022-10-20T23:16:12.082Z,87.13
2022-10-20T23:18:39.681Z,86.97
2022-10-20T23:21:07.280Z,86.78
2022-10-20T23:23:37.943Z,86.64
2022-10-20T23:26:08.193Z,86.87
2022-10-20T23:28:35.831Z,86.67
2022-10-20T23:31:13.041Z,86.37
2022-10-20T23:33:41.634Z,86.21
2022-10-20T23:36:09.342Z,86.19
2022-10-20T23:38:36.572Z,86.66
2022-10-20T23:41:04.245Z,86.06
2022-10-20T23:43:31.804Z,85.90
2022-10-20T23:45:58.929Z,86.73
2022-10-20T23:48:25.861Z,86.48
2022-10-20T23:50:52.633Z,86.15
2022-10-20T23:53:19.451Z,86.03
2022-10-20T23:55:46.175Z,86.31
2022-10-20T23:58:12.932Z,86.12
